createdAt,value
2022-09-01T00:00:02.875Z,12.50
2022-09-01T00:02:30.223Z,13.23
2022-09-01T00:04:59.946Z,13.20
2022-09-01T00:07:30.417Z,13.00
2022-09-01T00:09:58.487Z,14.23
2022-09-01T00:12:25.836Z,14.57
2022-09-01T00:14:53.394Z,12.38
2022-09-01T00:17:20.166Z,12.60
2022-09-01T00:19:46.880Z,13.77
2022-09-01T00:22:13.573Z,15.57
2022-09-01T00:24:40.241Z,14.57
2022-09-01T00:27:06.918Z,14.30
2022-09-01T00:29:34.382Z,13.95
2022-09-01T00:32:01.087Z,14.32
2022-09-01T00:34:27.829Z,15.13
2022-09-01T00:36:54.683Z,18.35
2022-09-01T00:39:21.384Z,16.83
2022-09-01T00:41:50.435Z,17.38
2022-09-01T00:44:23.368Z,16.15
2022-09-01T00:46:55.085Z,16.67
2022-09-01T00:49:38.875Z,15.87
2022-09-01T00:52:19.668Z,15.50
2022-09-01T00:54:53.843Z,15.13
2022-09-01T00:57:20.613Z,15.70
2022-09-01T00:59:52.577Z,15.88
2022-09-01T01:04:46.338Z,16.35
2022-09-01T01:07:13.430Z,16.80
2022-09-01T01:09:44.432Z,16.48
2022-09-01T01:12:18.410Z,15.43
2022-09-01T01:14:50.325Z,15.50
2022-09-01T01:20:10.819Z,13.48
2022-09-01T01:23:03.673Z,11.98
2022-09-01T01:25:52.173Z,9.90
2022-09-01T01:28:22.395Z,10.13
2022-09-01T01:30:53.114Z,8.77
2022-09-01T01:33:25.973Z,9.68
2022-09-01T01:35:56.238Z,8.68
2022-09-01T01:38:23.813Z,8.50
2022-09-01T01:40:51.940Z,8.63
2022-09-01T01:43:21.873Z,8.98
2022-09-01T01:45:52.175Z,8.90
2022-09-01T01:48:24.601Z,8.63
2022-09-01T01:50:54.425Z,8.90
2022-09-01T01:53:22.263Z,8.30
2022-09-01T01:55:49.747Z,8.63
2022-09-01T01:58:19.906Z,8.05
2022-09-01T02:00:49.352Z,8.70
2022-09-01T02:03:19.140Z,9.18
2022-09-01T02:05:48.431Z,9.52
2022-09-01T02:08:16.031Z,9.60
2022-09-01T02:10:46.241Z,10.13
2022-09-01T02:13:18.602Z,9.88
2022-09-01T02:15:48.648Z,10.23
2022-09-01T02:18:22.027Z,9.35
2022-09-01T02:20:50.728Z,10.45
2022-09-01T02:23:23.321Z,9.77
2022-09-01T02:26:15.046Z,9.80
2022-09-01T02:28:42.679Z,8.77
2022-09-01T02:31:11.417Z,7.82
2022-09-01T02:33:41.040Z,7.03
2022-09-01T02:36:13.312Z,9.00
2022-09-01T02:38:43.008Z,8.80
2022-09-01T02:41:14.522Z,8.70
2022-09-01T02:43:43.591Z,7.88
2022-09-01T02:46:10.415Z,7.80
2022-09-01T02:48:40.393Z,6.88
2022-09-01T02:51:14.214Z,6.50
2022-09-01T02:53:42.855Z,6.80
2022-09-01T02:56:15.462Z,6.72
2022-09-01T02:58:48.001Z,7.20
2022-09-01T03:01:34.987Z,7.43
2022-09-01T03:04:05.765Z,6.70
2022-09-01T03:06:34.550Z,6.50
2022-09-01T03:09:03.226Z,6.53
2022-09-01T03:11:32.694Z,6.50
2022-09-01T03:13:59.810Z,6.75
2022-09-01T03:16:26.898Z,6.50
2022-09-01T03:18:53.790Z,6.45
2022-09-01T03:21:21.159Z,6.57
2022-09-01T03:23:51.536Z,6.18
2022-09-01T03:26:22.133Z,5.88
2022-09-01T03:28:53.543Z,6.20
2022-09-01T03:31:20.889Z,5.57
2022-09-01T03:33:47.972Z,5.47
2022-09-01T03:36:19.382Z,5.80
2022-09-01T03:38:50.988Z,5.75
2022-09-01T03:41:22.458Z,6.10
2022-09-01T03:43:50.878Z,6.15
2022-09-01T03:46:27.423Z,7.88
2022-09-01T03:48:58.675Z,8.40
2022-09-01T03:51:26.037Z,7.88
2022-09-01T03:53:55.213Z,6.50
2022-09-01T03:56:27.428Z,6.28
2022-09-01T03:58:59.366Z,5.75
2022-09-01T04:01:28.636Z,4.57
2022-09-01T04:03:55.539Z,4.60
2022-09-01T04:06:24.376Z,4.13
2022-09-01T04:08:57.847Z,3.40
2022-09-01T04:11:25.384Z,3.40
2022-09-01T04:13:52.719Z,3.92
2022-09-01T04:16:43.599Z,3.65
2022-09-01T04:19:20.664Z,3.53
2022-09-01T04:21:52.304Z,4.07
2022-09-01T04:24:19.402Z,4.00
2022-09-01T04:26:49.760Z,3.78
2022-09-01T04:29:27.445Z,4.05
2022-09-01T04:31:56.534Z,3.80
2022-09-01T04:34:24.298Z,3.90
2022-09-01T04:36:54.578Z,3.50
2022-09-01T04:39:22.517Z,3.90
2022-09-01T04:41:50.823Z,3.90
2022-09-01T04:44:19.329Z,3.80
2022-09-01T04:46:47.982Z,3.78
2022-09-01T04:49:19.631Z,3.70
2022-09-01T04:51:53.326Z,3.83
2022-09-01T04:54:21.664Z,3.80
2022-09-01T04:56:51.247Z,3.85
2022-09-01T04:59:21.913Z,3.55
2022-09-01T05:01:50.812Z,3.75
2022-09-01T05:04:22.785Z,3.80
2022-09-01T05:06:56.067Z,3.45
2022-09-01T05:09:25.347Z,3.70
2022-09-01T05:11:53.133Z,3.22
2022-09-01T05:14:21.596Z,3.20
2022-09-01T05:16:50.046Z,3.42
2022-09-01T05:19:21.000Z,3.50
2022-09-01T05:21:49.665Z,3.13
2022-09-01T05:24:21.921Z,3.80
2022-09-01T05:26:51.069Z,4.00
2022-09-01T05:29:18.230Z,4.07
2022-09-01T05:31:50.414Z,4.00
2022-09-01T05:34:26.493Z,4.72
2022-09-01T05:36:58.214Z,4.40
2022-09-01T05:39:27.301Z,7.22
2022-09-01T05:41:54.213Z,8.00
2022-09-01T05:44:23.577Z,6.68
2022-09-01T05:46:50.714Z,7.15
2022-09-01T05:49:18.935Z,8.68
2022-09-01T05:51:57.611Z,9.20
2022-09-01T05:54:27.520Z,8.50
2022-09-01T05:57:12.804Z,9.77
2022-09-01T05:59:47.053Z,10.85
2022-09-01T06:02:13.938Z,10.73
2022-09-01T06:04:44.382Z,10.00
2022-09-01T06:07:18.493Z,11.38
2022-09-01T06:09:53.127Z,10.25
2022-09-01T06:12:20.433Z,12.38
2022-09-01T06:14:48.888Z,12.52
2022-09-01T06:17:22.224Z,12.85
2022-09-01T06:19:49.095Z,12.63
2022-09-01T06:22:17.133Z,12.68
2022-09-01T06:24:45.585Z,13.25
2022-09-01T06:27:20.368Z,13.18
2022-09-01T06:29:49.369Z,13.77
2022-09-01T06:32:17.046Z,13.75
2022-09-01T06:34:44.700Z,12.48
2022-09-01T06:37:13.335Z,12.07
2022-09-01T06:39:40.219Z,11.38
2022-09-01T06:42:06.926Z,11.68
2022-09-01T06:44:40.332Z,12.15
2022-09-01T06:47:09.123Z,12.95
2022-09-01T06:49:36.743Z,12.40
2022-09-01T06:52:05.145Z,10.73
2022-09-01T06:54:35.684Z,12.27
2022-09-01T06:59:52.652Z,9.95
2022-09-01T07:02:21.484Z,8.23
2022-09-01T07:05:08.436Z,6.90
2022-09-01T07:10:24.111Z,7.78
2022-09-01T07:13:09.010Z,6.25
2022-09-01T07:18:28.661Z,6.43
2022-09-01T07:21:07.141Z,7.38
2022-09-01T07:24:07.797Z,8.30
2022-09-01T07:26:30.879Z,7.75
2022-09-01T07:29:01.822Z,7.47
2022-09-01T07:39:55.327Z,5.70
2022-09-01T07:45:28.227Z,5.70
2022-09-01T07:47:55.588Z,5.13
2022-09-01T07:50:38.735Z,6.22
2022-09-01T07:53:08.694Z,5.85
2022-09-01T07:55:35.630Z,6.03
2022-09-01T07:58:02.314Z,5.55
2022-09-01T08:00:31.387Z,6.97
2022-09-01T08:02:59.243Z,5.78
2022-09-01T08:05:27.365Z,5.75
2022-09-01T08:07:54.781Z,6.30
2022-09-01T08:10:21.736Z,6.88
2022-09-01T08:12:56.308Z,6.40
2022-09-01T08:15:41.480Z,6.10
2022-09-01T08:18:14.513Z,4.40
2022-09-01T08:20:47.217Z,6.32
2022-09-01T08:23:18.468Z,5.80
2022-09-01T08:25:46.843Z,6.05
2022-09-01T08:28:15.516Z,5.93
2022-09-01T08:30:47.119Z,6.50
2022-09-01T08:33:18.960Z,6.85
2022-09-01T08:35:48.302Z,7.45
2022-09-01T08:38:15.516Z,5.95
2022-09-01T08:40:51.479Z,7.30
2022-09-01T08:43:31.274Z,7.07
2022-09-01T08:46:09.431Z,7.22
2022-09-01T08:51:40.492Z,6.43
2022-09-01T08:54:14.502Z,6.22
2022-09-01T08:56:46.179Z,6.43
2022-09-01T08:59:15.041Z,5.88
2022-09-01T09:01:50.832Z,5.78
2022-09-01T09:04:20.427Z,4.95
2022-09-01T09:06:53.098Z,4.22
2022-09-01T09:09:32.451Z,4.60
2022-09-01T09:12:10.783Z,4.50
2022-09-01T09:15:08.596Z,4.18
2022-09-01T09:17:44.090Z,4.18
2022-09-01T09:20:11.125Z,4.00
2022-09-01T09:22:38.860Z,3.97
2022-09-01T09:25:17.526Z,3.50
2022-09-01T09:28:00.603Z,3.78
2022-09-01T09:30:31.481Z,2.95
2022-09-01T09:35:57.623Z,3.20
2022-09-01T09:38:29.414Z,3.05
2022-09-01T09:43:56.365Z,2.63
2022-09-01T09:46:32.291Z,2.80
2022-09-01T09:49:11.228Z,3.05
2022-09-01T09:51:40.689Z,3.40
2022-09-01T09:54:16.184Z,3.50
2022-09-01T09:56:46.561Z,3.30
2022-09-01T09:59:34.145Z,2.90
2022-09-01T10:02:27.403Z,3.00
2022-09-01T10:04:56.012Z,2.70
2022-09-01T10:07:35.558Z,2.88
2022-09-01T10:10:08.203Z,2.78
2022-09-01T10:12:35.499Z,3.00
2022-09-01T10:15:12.735Z,2.70
2022-09-01T10:17:44.492Z,6.40
2022-09-01T10:20:21.274Z,3.60
2022-09-01T10:22:50.712Z,3.35
2022-09-01T10:25:33.475Z,3.17
2022-09-01T10:28:10.077Z,3.30
2022-09-01T10:30:42.809Z,3.47
2022-09-01T10:33:20.068Z,3.22
2022-09-01T10:35:51.323Z,2.92
2022-09-01T10:38:23.118Z,3.05
2022-09-01T10:41:07.467Z,3.20
2022-09-01T10:43:45.295Z,3.38
2022-09-01T10:46:38.848Z,3.08
2022-09-01T10:49:28.509Z,3.17
2022-09-01T10:52:03.257Z,3.00
2022-09-01T10:54:45.235Z,3.45
2022-09-01T10:57:45.552Z,3.60
2022-09-01T11:00:40.474Z,2.78
2022-09-01T11:06:14.395Z,2.63
2022-09-01T11:08:48.232Z,3.10
2022-09-01T11:11:32.616Z,3.20
2022-09-01T11:13:59.610Z,3.15
2022-09-01T11:19:23.245Z,2.60
2022-09-01T11:22:26.385Z,3.13
2022-09-01T11:25:41.387Z,3.03
2022-09-01T11:28:17.892Z,2.92
2022-09-01T11:30:53.069Z,2.58
2022-09-01T11:34:07.773Z,2.38
2022-09-01T11:36:48.690Z,2.30
2022-09-01T11:39:19.192Z,2.40
2022-09-01T11:44:55.403Z,2.88
2022-09-01T11:47:30.653Z,1.95
2022-09-01T11:50:00.976Z,2.10
2022-09-01T11:52:31.973Z,2.25
2022-09-01T11:54:59.566Z,2.13
2022-09-01T11:57:35.592Z,2.10
2022-09-01T12:00:09.661Z,2.20
2022-09-01T12:02:44.985Z,2.30
2022-09-01T12:05:33.504Z,2.33
2022-09-01T12:08:04.096Z,2.38
2022-09-01T12:10:36.801Z,2.47
2022-09-01T12:13:09.249Z,2.33
2022-09-01T12:15:55.228Z,2.42
2022-09-01T12:18:47.443Z,2.53
2022-09-01T12:21:24.023Z,2.30
2022-09-01T12:23:51.344Z,2.40
2022-09-01T12:26:26.696Z,2.45
2022-09-01T12:28:53.585Z,2.42
2022-09-01T12:31:23.818Z,2.80
2022-09-01T12:33:52.203Z,2.35
2022-09-01T12:36:35.923Z,2.40
2022-09-01T12:39:17.935Z,2.55
2022-09-01T12:41:48.449Z,2.53
2022-09-01T12:44:38.178Z,2.33
2022-09-01T12:47:14.127Z,2.42
2022-09-01T12:49:47.937Z,2.55
2022-09-01T12:52:27.518Z,2.13
2022-09-01T12:55:00.211Z,2.30
2022-09-01T12:57:34.412Z,2.22
2022-09-01T13:00:20.586Z,2.03
2022-09-01T13:02:53.366Z,2.20
2022-09-01T13:05:30.625Z,1.95
2022-09-01T13:08:01.135Z,2.15
2022-09-01T13:10:33.234Z,2.17
2022-09-01T13:13:02.020Z,2.30
2022-09-01T13:15:28.966Z,2.50
2022-09-01T13:17:55.665Z,2.08
2022-09-01T13:20:22.362Z,2.08
2022-09-01T13:22:49.308Z,2.20
2022-09-01T13:25:20.415Z,2.17
2022-09-01T13:27:48.400Z,2.17
2022-09-01T13:30:17.839Z,2.13
2022-09-01T13:35:33.544Z,2.00
2022-09-01T13:38:00.136Z,2.20
2022-09-01T13:40:28.850Z,1.88
2022-09-01T13:42:55.526Z,2.20
2022-09-01T13:45:25.695Z,1.90
2022-09-01T13:53:27.233Z,2.05
2022-09-01T13:55:54.279Z,1.60
2022-09-01T13:58:21.076Z,2.17
2022-09-01T14:00:48.521Z,1.98
2022-09-01T14:03:23.061Z,1.95
2022-09-01T14:05:50.601Z,2.08
2022-09-01T14:08:20.951Z,2.03
2022-09-01T14:10:51.264Z,2.03
2022-09-01T14:13:21.237Z,2.10
2022-09-01T14:15:49.314Z,1.90
2022-09-01T14:18:16.578Z,1.50
2022-09-01T14:20:45.493Z,1.77
2022-09-01T14:23:13.878Z,2.10
2022-09-01T14:25:48.697Z,2.03
2022-09-01T14:28:20.382Z,1.95
2022-09-01T14:33:16.823Z,1.90
2022-09-01T14:35:47.000Z,1.80
2022-09-01T14:38:15.024Z,1.92
2022-09-01T14:40:43.248Z,2.10
2022-09-01T14:43:12.987Z,1.77
2022-09-01T14:45:41.031Z,1.95
2022-09-01T14:48:09.264Z,2.00
2022-09-01T14:50:41.355Z,2.10
2022-09-01T14:53:08.812Z,2.20
2022-09-01T14:55:35.712Z,2.28
2022-09-01T14:58:02.536Z,1.90
2022-09-01T15:00:30.310Z,1.98
2022-09-01T15:02:58.202Z,1.80
2022-09-01T15:05:25.581Z,2.05
2022-09-01T15:07:54.156Z,2.20
2022-09-01T15:10:25.169Z,2.10
2022-09-01T15:12:54.686Z,2.25
2022-09-01T15:15:21.938Z,1.95
2022-09-01T15:17:48.712Z,1.58
2022-09-01T15:20:33.972Z,2.10
2022-09-01T15:23:02.023Z,2.10
2022-09-01T15:25:28.754Z,2.20
2022-09-01T15:27:55.517Z,2.50
2022-09-01T15:30:23.486Z,2.13
2022-09-01T15:32:52.393Z,2.55
2022-09-01T15:35:20.207Z,2.55
2022-09-01T15:37:51.532Z,2.03
2022-09-01T15:40:20.130Z,2.42
2022-09-01T15:42:47.237Z,2.25
2022-09-01T15:45:24.507Z,2.05
2022-09-01T15:47:51.262Z,2.10
2022-09-01T15:50:22.150Z,2.08
2022-09-01T15:52:53.371Z,2.00
2022-09-01T15:55:23.560Z,1.90
2022-09-01T15:57:51.078Z,1.92
2022-09-01T16:00:18.722Z,2.08
2022-09-01T16:02:45.435Z,2.20
2022-09-01T16:05:12.872Z,1.98
2022-09-01T16:07:40.618Z,1.90
2022-09-01T16:10:12.129Z,1.90
2022-09-01T16:12:44.052Z,1.88
2022-09-01T16:17:48.152Z,1.77
2022-09-01T16:20:21.929Z,1.90
2022-09-01T16:22:55.448Z,1.60
2022-09-01T16:25:31.882Z,2.10
2022-09-01T16:28:09.007Z,2.10
2022-09-01T16:30:36.086Z,1.90
2022-09-01T16:33:04.958Z,1.90
2022-09-01T16:35:47.993Z,1.80
2022-09-01T16:38:29.662Z,2.08
2022-09-01T16:41:05.163Z,2.00
2022-09-01T16:43:47.290Z,1.95
2022-09-01T16:49:06.069Z,2.20
2022-09-01T16:51:47.762Z,2.47
2022-09-01T16:54:28.147Z,2.10
2022-09-01T16:57:16.321Z,2.30
2022-09-01T17:02:59.802Z,2.42
2022-09-01T17:05:34.473Z,2.33
2022-09-01T17:08:29.562Z,2.25
2022-09-01T17:11:18.682Z,2.50
2022-09-01T17:13:51.323Z,2.63
2022-09-01T17:16:39.544Z,2.35
2022-09-01T17:19:18.934Z,3.00
2022-09-01T17:21:53.935Z,2.20
2022-09-01T17:24:29.579Z,2.67
2022-09-01T17:27:04.913Z,3.08
2022-09-01T17:29:45.048Z,2.50
2022-09-01T17:32:34.771Z,2.50
2022-09-01T17:35:35.392Z,2.80
2022-09-01T17:38:18.411Z,2.60
2022-09-01T17:41:07.372Z,2.45
2022-09-01T17:44:07.168Z,2.80
2022-09-01T17:46:40.006Z,2.97
2022-09-01T17:49:09.924Z,2.58
2022-09-01T17:51:58.479Z,2.33
2022-09-01T17:54:37.499Z,2.72
2022-09-01T17:57:13.229Z,2.65
2022-09-01T18:00:06.472Z,2.53
2022-09-01T18:02:58.203Z,2.60
2022-09-01T18:05:26.635Z,3.22
2022-09-01T18:08:21.089Z,3.00
2022-09-01T18:10:55.742Z,2.67
2022-09-01T18:13:51.759Z,2.58
2022-09-01T18:16:20.729Z,2.30
2022-09-01T18:18:53.201Z,2.58
2022-09-01T18:21:34.562Z,3.03
2022-09-01T18:24:43.646Z,3.00
2022-09-01T18:27:12.409Z,2.50
2022-09-01T18:29:39.189Z,3.35
2022-09-01T18:32:20.801Z,3.17
2022-09-01T18:35:02.429Z,3.00
2022-09-01T18:37:48.499Z,3.17
2022-09-01T18:40:30.446Z,3.33
2022-09-01T18:43:18.617Z,3.08
2022-09-01T18:46:11.610Z,3.53
2022-09-01T18:49:09.842Z,2.92
2022-09-01T18:52:12.547Z,3.05
2022-09-01T18:54:53.276Z,3.30
2022-09-01T18:57:24.306Z,3.03
2022-09-01T19:00:03.114Z,3.42
2022-09-01T19:03:10.194Z,3.30
2022-09-01T19:06:07.695Z,2.95
2022-09-01T19:08:48.469Z,4.60
2022-09-01T19:11:21.522Z,3.17
2022-09-01T19:14:09.504Z,3.22
2022-09-01T19:17:03.667Z,2.92
2022-09-01T19:19:54.381Z,3.10
2022-09-01T19:22:51.479Z,3.00
2022-09-01T19:25:38.898Z,3.67
2022-09-01T19:28:18.927Z,3.05
2022-09-01T19:30:57.291Z,2.47
2022-09-01T19:33:29.205Z,2.95
2022-09-01T19:36:03.064Z,2.92
2022-09-01T19:38:30.411Z,2.83
2022-09-01T19:41:14.467Z,3.00
2022-09-01T19:43:43.096Z,3.40
2022-09-01T19:46:20.038Z,3.53
2022-09-01T19:49:17.242Z,3.63
2022-09-01T19:52:09.132Z,3.72
2022-09-01T19:54:51.871Z,3.20
2022-09-01T19:57:25.316Z,3.90
2022-09-01T20:00:03.046Z,3.40
2022-09-01T20:02:35.626Z,3.38
2022-09-01T20:05:08.913Z,2.88
2022-09-01T20:07:51.200Z,3.45
2022-09-01T20:10:37.117Z,3.58
2022-09-01T20:13:15.869Z,3.58
2022-09-01T20:15:54.253Z,3.17
2022-09-01T20:18:29.766Z,3.53
2022-09-01T20:21:00.240Z,3.90
2022-09-01T20:23:52.782Z,3.38
2022-09-01T20:26:29.353Z,3.38
2022-09-01T20:29:14.583Z,3.35
2022-09-01T20:31:45.600Z,3.53
2022-09-01T20:34:32.569Z,3.85
2022-09-01T20:37:06.352Z,3.25
2022-09-01T20:40:00.287Z,3.33
2022-09-01T20:43:04.573Z,3.58
2022-09-01T20:45:32.185Z,3.55
2022-09-01T20:48:02.128Z,4.55
2022-09-01T20:50:43.592Z,3.65
2022-09-01T20:53:22.015Z,3.80
2022-09-01T20:56:02.621Z,3.63
2022-09-01T20:58:32.363Z,4.40
2022-09-01T21:01:28.617Z,3.60
2022-09-01T21:04:35.904Z,3.63
2022-09-01T21:07:13.837Z,3.75
2022-09-01T21:09:43.559Z,3.80
2022-09-01T21:12:27.673Z,3.70
2022-09-01T21:15:32.128Z,3.53
2022-09-01T21:18:26.666Z,4.10
2022-09-01T21:21:18.449Z,3.63
2022-09-01T21:23:45.296Z,3.95
2022-09-01T21:26:12.103Z,3.85
2022-09-01T21:28:40.655Z,3.58
2022-09-01T21:31:09.252Z,3.67
2022-09-01T21:33:36.053Z,3.60
2022-09-01T21:36:03.102Z,3.85
2022-09-01T21:38:29.873Z,3.50
2022-09-01T21:40:59.278Z,3.80
2022-09-01T21:43:34.308Z,3.65
2022-09-01T21:46:02.270Z,3.90
2022-09-01T21:48:30.974Z,3.42
2022-09-01T21:50:57.728Z,3.65
2022-09-01T21:53:24.339Z,3.72
2022-09-01T21:55:51.089Z,3.75
2022-09-01T21:58:18.542Z,3.95
2022-09-01T22:00:47.953Z,3.33
2022-09-01T22:03:14.636Z,3.35
2022-09-01T22:05:42.959Z,3.20
2022-09-01T22:08:12.230Z,3.33
2022-09-01T22:10:47.195Z,3.05
2022-09-01T22:13:14.200Z,3.50
2022-09-01T22:15:46.840Z,3.35
2022-09-01T22:18:14.687Z,3.33
2022-09-01T22:20:41.956Z,3.17
2022-09-01T22:23:09.803Z,3.00
2022-09-01T22:25:40.332Z,3.20
2022-09-01T22:28:06.995Z,3.35
2022-09-01T22:30:34.634Z,3.45
2022-09-01T22:33:02.572Z,3.13
2022-09-01T22:35:29.485Z,3.47
2022-09-01T22:37:56.159Z,3.22
2022-09-01T22:40:22.873Z,3.50
2022-09-01T22:42:51.929Z,3.30
2022-09-01T22:45:18.797Z,3.33
2022-09-01T22:47:45.595Z,3.65
2022-09-01T22:50:12.684Z,3.10
2022-09-01T22:52:39.884Z,3.30
2022-09-01T22:55:08.051Z,3.33
2022-09-01T22:57:35.846Z,3.60
2022-09-01T23:00:08.271Z,3.30
2022-09-01T23:02:35.221Z,3.58
2022-09-01T23:05:01.976Z,3.05
2022-09-01T23:07:28.808Z,3.08
2022-09-01T23:09:55.586Z,3.13
2022-09-01T23:12:22.546Z,3.20
2022-09-01T23:14:49.827Z,3.25
2022-09-01T23:17:16.646Z,3.30
2022-09-01T23:19:43.332Z,3.35
2022-09-01T23:22:10.896Z,3.08
2022-09-01T23:24:37.543Z,3.00
2022-09-01T23:27:04.335Z,3.40
2022-09-01T23:29:31.086Z,3.20
2022-09-01T23:31:58.291Z,3.33
2022-09-01T23:34:24.949Z,3.40
2022-09-01T23:36:51.584Z,3.40
2022-09-01T23:39:18.449Z,3.65
2022-09-01T23:41:45.247Z,3.58
2022-09-01T23:44:12.449Z,3.67
2022-09-01T23:46:42.904Z,3.30
2022-09-01T23:49:10.979Z,3.00
2022-09-01T23:51:39.133Z,3.70
2022-09-01T23:54:06.320Z,3.25
2022-09-01T23:56:33.608Z,3.65
2022-09-01T23:59:00.479Z,3.97
